Time;durP1;ratioP1;P1;durP2;ratioP2;P2;SDS_P1;SDS_P2;PMS_P1;PMS_P2;Temp;Humidity;BMP_temperature;BMP_pressure;BME280_temperature;BME280_humidity;BME280_pressure;Samples;Min_cycle;Max_cycle;Signal;HPM_P1;HPM_P2
2022/11/30 00:01:26;;;;;;;;;;;;;;;16.19;49.15;101302.97;5060311;28;1168;-45
2022/11/30 00:03:52;;;;;;;;;;;;;;;17.32;46.53;101303.94;5060032;28;1218;-43
2022/11/30 00:06:23;;;;;;;;;;;;;;;16.90;47.45;101318.47;5059260;28;1164;-44
2022/11/30 00:08:52;;;;;;;;;;;;;;;16.33;48.81;101325.34;5058838;28;886;-45
2022/11/30 00:11:19;;;;;;;;;;;;;;;16.03;49.51;101315.69;5059707;28;1171;-44
2022/11/30 00:13:45;;;;;;;;;;;;;;;16.40;49.11;101325.97;5059080;28;1085;-46
2022/11/30 00:16:11;;;;;;;;;;;;;;;17.44;45.94;101322.97;5052656;28;1281;-48
2022/11/30 00:18:36;;;;;;;;;;;;;;;16.45;48.50;101333.41;5052688;28;1914;-43
2022/11/30 00:21:02;;;;;;;;;;;;;;;16.76;48.07;101335.38;5058423;28;1005;-46
2022/11/30 00:23:34;;;;;;;;;;;;;;;17.15;46.82;101341.75;5059434;28;1160;-43
2022/11/30 00:26:02;;;;;;;;;;;;;;;16.37;48.81;101332.81;5059230;28;1045;-40
2022/11/30 00:28:28;;;;;;;;;;;;;;;16.06;49.46;101331.63;5059423;28;1211;-47
2022/11/30 00:30:59;;;;;;;;;;;;;;;15.90;49.90;101336.09;5058756;28;1211;-48
2022/11/30 00:33:25;;;;;;;;;;;;;;;17.51;46.13;101331.81;5058848;28;1194;-44
2022/11/30 00:36:00;;;;;;;;;;;;;;;16.61;48.02;101329.75;5058703;28;1058;-48
2022/11/30 00:38:26;;;;;;;;;;;;;;;16.12;49.31;101330.59;5058966;28;1910;-45
2022/11/30 00:40:52;;;;;;;;;;;;;;;17.09;47.15;101333.47;5058224;28;1132;-45
2022/11/30 00:43:17;;;;;;;;;;;;;;;16.89;47.24;101330.56;5058342;28;1155;-45
2022/11/30 00:45:43;;;;;;;;;;;;;;;16.24;48.84;101341.44;5058938;28;1139;-43
2022/11/30 00:48:08;;;;;;;;;;;;;;;16.10;49.34;101353.91;5058829;28;1128;-43
2022/11/30 00:50:34;;;;;;;;;;;;;;;17.60;45.85;101359.66;5058199;28;1179;-42
2022/11/30 00:52:59;;;;;;;;;;;;;;;16.56;48.28;101359.88;5058662;28;1237;-43
2022/11/30 00:55:26;;;;;;;;;;;;;;;16.18;49.37;101358.94;5058841;28;1131;-45
2022/11/30 00:57:51;;;;;;;;;;;;;;;17.05;47.24;101353.50;5058496;28;1910;-40
2022/11/30 01:00:17;;;;;;;;;;;;;;;17.14;46.69;101353.81;5058550;28;1128;-46
2022/11/30 01:02:42;;;;;;;;;;;;;;;16.34;48.62;101344.31;5058641;28;1140;-44
2022/11/30 01:05:08;;;;;;;;;;;;;;;16.04;49.50;101345.59;5058529;28;1112;-45
2022/11/30 01:07:33;;;;;;;;;;;;;;;16.99;47.21;101347.13;5040102;28;1172;-41
2022/11/30 01:09:59;;;;;;;;;;;;;;;16.90;47.31;101340.44;5058121;28;1198;-44
2022/11/30 01:12:24;;;;;;;;;;;;;;;16.28;49.02;101339.00;5057538;28;1210;-41
2022/11/30 01:14:50;;;;;;;;;;;;;;;15.98;49.63;101335.66;5058564;28;1171;-44
2022/11/30 01:17:15;;;;;;;;;;;;;;;17.34;46.58;101336.66;5058198;28;1203;-41
2022/11/30 01:19:40;;;;;;;;;;;;;;;16.98;47.01;101333.66;5057797;28;1906;-47
2022/11/30 01:22:06;;;;;;;;;;;;;;;16.34;48.90;101333.31;5057911;28;1209;-48
2022/11/30 01:24:31;;;;;;;;;;;;;;;16.88;47.72;101320.63;5058195;28;1250;-48
2022/11/30 01:26:57;;;;;;;;;;;;;;;17.08;46.79;101309.84;5058131;28;1132;-44
2022/11/30 01:29:22;;;;;;;;;;;;;;;16.37;48.46;101305.34;5058372;28;1160;-45
2022/11/30 01:31:48;;;;;;;;;;;;;;;16.01;49.34;101302.22;5057327;28;1226;-45
2022/11/30 01:34:13;;;;;;;;;;;;;;;16.66;47.90;101294.09;5057859;28;1159;-46
2022/11/30 01:36:39;;;;;;;;;;;;;;;17.36;46.06;101294.09;5057571;28;1156;-43
2022/11/30 01:39:05;;;;;;;;;;;;;;;16.41;48.40;101284.53;5057549;28;1918;-42
2022/11/30 01:41:31;;;;;;;;;;;;;;;16.07;49.46;101286.66;5057334;28;1112;-45
2022/11/30 01:43:57;;;;;;;;;;;;;;;16.81;47.93;101287.06;5057665;28;1144;-44
2022/11/30 01:46:22;;;;;;;;;;;;;;;17.64;45.45;101300.25;5057802;28;1123;-47
2022/11/30 01:48:50;;;;;;;;;;;;;;;16.63;47.81;101307.50;5039557;28;1172;-43
2022/11/30 01:51:15;;;;;;;;;;;;;;;16.21;48.87;101314.50;5057964;28;1191;-43
2022/11/30 01:53:41;;;;;;;;;;;;;;;16.17;49.25;101313.38;5057157;28;1210;-45
2022/11/30 01:56:06;;;;;;;;;;;;;;;17.57;45.53;101313.41;5056890;28;1135;-43
2022/11/30 01:58:32;;;;;;;;;;;;;;;16.57;47.89;101298.41;5057306;28;1987;-44
2022/11/30 02:00:58;;;;;;;;;;;;;;;16.16;48.99;101306.22;5039440;28;1105;-45
2022/11/30 02:03:26;;;;;;;;;;;;;;;17.02;47.03;101296.31;5057039;28;1140;-46
2022/11/30 02:05:52;;;;;;;;;;;;;;;17.00;46.93;101282.84;5057127;28;1136;-46
2022/11/30 02:08:17;;;;;;;;;;;;;;;16.31;48.77;101286.34;5056944;28;1199;-44
2022/11/30 02:10:43;;;;;;;;;;;;;;;16.16;49.32;101297.97;5057252;28;1143;-48
2022/11/30 02:13:08;;;;;;;;;;;;;;;17.48;45.84;101298.53;5039513;28;1125;-44
2022/11/30 02:15:42;;;;;;;;;;;;;;;16.50;48.07;101306.03;5056951;28;1139;-42
2022/11/30 02:18:10;;;;;;;;;;;;;;;16.09;49.06;101314.66;5056245;28;1910;-46
2022/11/30 02:20:42;;;;;;;;;;;;;;;16.80;47.67;101318.38;5038974;28;1160;-46
2022/11/30 02:23:07;;;;;;;;;;;;;;;17.08;46.63;101312.59;5057089;28;1257;-46
2022/11/30 02:25:39;;;;;;;;;;;;;;;16.34;48.62;101314.13;5056801;28;1140;-41
2022/11/30 02:28:23;;;;;;;;;;;;;;;16.39;48.72;101319.63;5039234;28;1105;-43
2022/11/30 02:30:49;;;;;;;;;;;;;;;17.21;46.25;101314.03;5057195;28;1206;-44
2022/11/30 02:33:15;;;;;;;;;;;;;;;16.41;48.33;101324.88;5038797;28;912;-43
2022/11/30 02:35:41;;;;;;;;;;;;;;;16.09;49.29;101317.41;5056584;28;1186;-46
2022/11/30 02:38:07;;;;;;;;;;;;;;;16.40;48.50;101328.72;5056618;28;1906;-47
2022/11/30 02:40:32;;;;;;;;;;;;;;;17.57;45.48;101324.41;5039084;28;1183;-44
2022/11/30 02:42:58;;;;;;;;;;;;;;;16.53;47.92;101311.81;5056716;28;1187;-41
2022/11/30 02:45:27;;;;;;;;;;;;;;;16.14;49.06;101327.59;5056171;28;877;-43
2022/11/30 02:48:09;;;;;;;;;;;;;;;15.90;49.75;101308.69;5038899;28;1187;-43
2022/11/30 02:50:36;;;;;;;;;;;;;;;17.47;45.88;101321.63;5056630;28;1155;-46
2022/11/30 02:53:01;;;;;;;;;;;;;;;16.72;47.38;101308.69;5038486;28;1140;-43
2022/11/30 02:55:27;;;;;;;;;;;;;;;16.22;48.90;101308.75;5038128;28;1297;-45
2022/11/30 02:57:52;;;;;;;;;;;;;;;15.95;49.52;101313.38;5037937;28;1980;-47
2022/11/30 03:00:18;;;;;;;;;;;;;;;17.10;46.91;101304.06;5056136;28;1199;-43
2022/11/30 03:02:43;;;;;;;;;;;;;;;17.10;46.64;101313.13;5056181;28;1143;-43
2022/11/30 03:05:09;;;;;;;;;;;;;;;16.41;48.40;101313.88;5056118;28;1156;-43
2022/11/30 03:07:34;;;;;;;;;;;;;;;16.07;48.95;101314.09;5056294;28;1199;-45
2022/11/30 03:09:59;;;;;;;;;;;;;;;17.16;46.69;101302.19;5056059;28;878;-43
2022/11/30 03:12:25;;;;;;;;;;;;;;;17.08;46.50;101309.00;5056224;28;1211;-43
2022/11/30 03:14:50;;;;;;;;;;;;;;;16.31;48.37;101303.63;5056280;28;942;-42
2022/11/30 03:17:16;;;;;;;;;;;;;;;16.05;49.05;101297.06;5056138;28;1132;-48
2022/11/30 03:19:41;;;;;;;;;;;;;;;17.26;46.49;101289.34;5056289;28;1914;-47
2022/11/30 03:22:07;;;;;;;;;;;;;;;16.69;47.45;101296.31;5055716;28;878;-44
2022/11/30 03:24:32;;;;;;;;;;;;;;;16.18;48.80;101306.81;5055948;28;1178;-45
2022/11/30 03:26:57;;;;;;;;;;;;;;;17.22;46.67;101303.88;5055755;28;1172;-45
2022/11/30 03:29:23;;;;;;;;;;;;;;;17.02;46.63;101321.06;5039283;28;1133;-45
2022/11/30 03:31:48;;;;;;;;;;;;;;;16.32;48.36;101308.03;5042344;28;1210;-43
2022/11/30 03:34:14;;;;;;;;;;;;;;;16.24;48.63;101312.09;5059555;28;1060;-44
2022/11/30 03:36:39;;;;;;;;;;;;;;;17.63;45.53;101298.63;5042137;28;1144;-45
2022/11/30 03:39:04;;;;;;;;;;;;;;;16.57;47.60;101276.44;5059920;28;1905;-45
2022/11/30 03:41:30;;;;;;;;;;;;;;;16.17;48.72;101284.03;5059637;28;1163;-45
2022/11/30 03:43:55;;;;;;;;;;;;;;;15.94;49.38;101285.13;5059695;28;1226;-45
2022/11/30 03:46:21;;;;;;;;;;;;;;;16.95;47.19;101273.75;5059181;28;1000;-45
2022/11/30 03:48:46;;;;;;;;;;;;;;;17.21;46.16;101274.75;5059842;28;1230;-46
2022/11/30 03:51:12;;;;;;;;;;;;;;;16.39;48.31;101283.94;5045904;28;1116;-45
2022/11/30 03:53:37;;;;;;;;;;;;;;;16.04;49.07;101287.97;5053809;28;1211;-46
2022/11/30 03:56:03;;;;;;;;;;;;;;;17.32;46.09;101287.47;5059555;28;1172;-45
2022/11/30 03:58:29;;;;;;;;;;;;;;;16.80;47.28;101285.41;5058890;28;1970;-46
2022/11/30 04:01:00;;;;;;;;;;;;;;;16.23;48.45;101277.50;5062619;28;1356;-42
2022/11/30 04:03:26;;;;;;;;;;;;;;;16.11;49.27;101278.75;5068421;28;1142;-46
2022/11/30 04:05:51;;;;;;;;;;;;;;;17.67;45.26;101274.97;5059506;28;1175;-44
2022/11/30 04:08:17;;;;;;;;;;;;;;;16.75;47.29;101251.31;5059115;28;1104;-48
2022/11/30 04:10:44;;;;;;;;;;;;;;;16.21;48.72;101273.34;5058283;28;1178;-47
2022/11/30 04:13:10;;;;;;;;;;;;;;;16.47;48.25;101274.44;5058664;28;1117;-42
2022/11/30 04:15:35;;;;;;;;;;;;;;;17.33;45.55;101275.34;5044379;28;2363;-44
2022/11/30 04:18:01;;;;;;;;;;;;;;;16.48;47.84;101267.00;5038698;28;1906;-43
2022/11/30 04:20:26;;;;;;;;;;;;;;;16.07;48.72;101283.91;5038393;28;1258;-45
2022/11/30 04:22:52;;;;;;;;;;;;;;;17.52;45.40;101291.41;5057931;28;1057;-41
2022/11/30 04:25:17;;;;;;;;;;;;;;;16.80;46.82;101291.72;5058726;28;1238;-41
2022/11/30 04:27:44;;;;;;;;;;;;;;;16.25;48.40;101299.19;5058453;28;1298;-45
2022/11/30 04:30:10;;;;;;;;;;;;;;;15.99;48.94;101293.44;5058088;28;1242;-43
2022/11/30 04:32:35;;;;;;;;;;;;;;;16.28;48.58;101306.91;5058145;28;1258;-43
2022/11/30 04:35:01;;;;;;;;;;;;;;;17.47;45.42;101299.63;5058351;28;1129;-46
2022/11/30 04:37:26;;;;;;;;;;;;;;;16.44;47.90;101302.41;5058297;28;1207;-44
2022/11/30 04:39:51;;;;;;;;;;;;;;;16.64;47.85;101298.19;5057864;28;1913;-43
2022/11/30 04:42:17;;;;;;;;;;;;;;;17.37;45.56;101305.91;5058670;28;1132;-44
2022/11/30 04:44:42;;;;;;;;;;;;;;;16.48;47.90;101313.69;5058446;28;2237;-42
2022/11/30 04:47:08;;;;;;;;;;;;;;;16.09;49.01;101314.66;5056944;28;1193;-50
2022/11/30 04:49:33;;;;;;;;;;;;;;;15.95;49.16;101322.47;5038447;28;1220;-50
2022/11/30 04:51:58;;;;;;;;;;;;;;;17.48;45.63;101306.78;5063661;28;1319;-49
2022/11/30 04:54:24;;;;;;;;;;;;;;;16.66;47.48;101316.06;5070981;28;1145;-47
2022/11/30 04:56:49;;;;;;;;;;;;;;;16.36;48.18;101313.84;5060633;28;1252;-45
2022/11/30 04:59:15;;;;;;;;;;;;;;;17.63;45.15;101320.63;5065437;28;1913;-46
2022/11/30 05:01:40;;;;;;;;;;;;;;;16.62;47.30;101314.94;5058101;28;1116;-47
2022/11/30 05:04:06;;;;;;;;;;;;;;;16.19;48.74;101317.50;5045536;28;1034;-46
2022/11/30 05:06:31;;;;;;;;;;;;;;;16.69;47.67;101301.81;5054666;28;994;-48
2022/11/30 05:08:57;;;;;;;;;;;;;;;17.12;46.21;101314.81;5057421;28;1167;-48
2022/11/30 05:11:22;;;;;;;;;;;;;;;16.35;48.26;101323.16;5057982;28;1185;-46
2022/11/30 05:13:47;;;;;;;;;;;;;;;17.00;46.72;101332.31;5042344;28;1834;-50
2022/11/30 05:16:13;;;;;;;;;;;;;;;17.05;46.22;101324.06;5042322;28;1082;-47
2022/11/30 05:18:38;;;;;;;;;;;;;;;16.39;48.17;101324.31;5051989;28;1905;-46
2022/11/30 05:21:04;;;;;;;;;;;;;;;17.22;46.25;101320.34;5057564;28;1152;-44
2022/11/30 05:23:29;;;;;;;;;;;;;;;16.79;46.97;101325.78;5055804;28;1202;-46
2022/11/30 05:25:55;;;;;;;;;;;;;;;16.27;48.28;101332.72;5049766;28;1199;-48
2022/11/30 05:28:20;;;;;;;;;;;;;;;16.05;49.07;101341.78;5045347;28;1604;-43
2022/11/30 05:30:45;;;;;;;;;;;;;;;17.55;45.08;101340.38;5044020;28;1154;-48
2022/11/30 05:33:11;;;;;;;;;;;;;;;16.60;47.27;101331.63;5041019;28;1183;-45
2022/11/30 05:35:36;;;;;;;;;;;;;;;16.15;48.75;101337.50;5055520;28;1203;-50
2022/11/30 05:38:02;;;;;;;;;;;;;;;17.14;46.51;101335.44;5049851;28;1910;-50
2022/11/30 05:40:29;;;;;;;;;;;;;;;16.89;46.85;101355.28;5048832;28;1170;-44
2022/11/30 05:42:57;;;;;;;;;;;;;;;16.27;48.46;101353.81;5042683;28;1128;-47
2022/11/30 05:45:23;;;;;;;;;;;;;;;15.99;48.84;101353.78;5045943;28;1770;-43
2022/11/30 05:47:48;;;;;;;;;;;;;;;16.93;47.00;101354.50;5049423;28;1302;-43
2022/11/30 05:50:14;;;;;;;;;;;;;;;17.09;46.44;101354.63;5050838;28;1148;-45
2022/11/30 05:52:39;;;;;;;;;;;;;;;16.35;48.11;101343.19;5033427;28;982;-50
2022/11/30 05:55:05;;;;;;;;;;;;;;;16.07;48.74;101344.25;5057379;28;1116;-45
2022/11/30 05:57:30;;;;;;;;;;;;;;;16.78;47.17;101343.34;5050238;28;1183;-46
2022/11/30 05:59:55;;;;;;;;;;;;;;;17.35;45.73;101369.38;5053690;28;1968;-45
2022/11/30 06:02:21;;;;;;;;;;;;;;;16.47;47.67;101359.53;5051334;28;1001;-45
2022/11/30 06:04:46;;;;;;;;;;;;;;;16.07;48.69;101369.78;5055763;28;1258;-42
2022/11/30 06:07:12;;;;;;;;;;;;;;;17.03;46.65;101370.25;5054024;28;1390;-43
2022/11/30 06:09:38;;;;;;;;;;;;;;;17.13;46.12;101375.00;5055270;28;1018;-42
2022/11/30 06:12:03;;;;;;;;;;;;;;;16.40;48.17;101378.94;5056258;28;1179;-46
2022/11/30 06:14:29;;;;;;;;;;;;;;;16.52;47.98;101391.69;5056696;28;1821;-41
2022/11/30 06:16:54;;;;;;;;;;;;;;;17.22;45.76;101395.41;5056595;28;1287;-41
2022/11/30 06:19:19;;;;;;;;;;;;;;;16.41;47.99;101409.94;5056192;28;1902;-44
2022/11/30 06:21:45;;;;;;;;;;;;;;;16.11;48.56;101410.44;5056227;28;1182;-44
2022/11/30 06:24:10;;;;;;;;;;;;;;;16.68;47.61;101406.41;5055672;28;953;-41
2022/11/30 06:26:36;;;;;;;;;;;;;;;17.12;46.19;101421.97;5056711;28;1222;-42
2022/11/30 06:29:01;;;;;;;;;;;;;;;16.42;48.16;101436.31;5050547;28;1159;-42
2022/11/30 06:31:26;;;;;;;;;;;;;;;17.22;45.90;101428.38;5051275;28;1191;-42
2022/11/30 06:33:55;;;;;;;;;;;;;;;16.33;47.90;101430.47;5054616;28;1191;-45
2022/11/30 06:36:21;;;;;;;;;;;;;;;16.04;48.43;101441.59;5044213;28;1496;-45
2022/11/30 06:38:47;;;;;;;;;;;;;;;16.88;46.74;101449.75;5055613;28;1960;-43
2022/11/30 06:41:12;;;;;;;;;;;;;;;17.27;46.13;101441.34;5056627;28;1104;-43
2022/11/30 06:43:39;;;;;;;;;;;;;;;18.68;42.73;101434.44;5056772;28;1877;-44
2022/11/30 06:46:05;;;;;;;;;;;;;;;17.21;45.75;101431.41;5056098;28;1069;-43
2022/11/30 06:48:30;;;;;;;;;;;;;;;16.52;46.89;101443.84;5056688;28;1088;-45
2022/11/30 06:50:57;;;;;;;;;;;;;;;17.24;46.09;101439.13;5057203;28;1139;-43
2022/11/30 06:53:22;;;;;;;;;;;;;;;16.54;46.82;101427.97;5056174;28;1068;-44
2022/11/30 06:55:48;;;;;;;;;;;;;;;17.51;45.65;101451.97;5056207;28;1096;-41
2022/11/30 06:58:13;;;;;;;;;;;;;;;16.98;46.32;101430.63;5054213;28;1910;-44
2022/11/30 07:00:39;;;;;;;;;;;;;;;16.51;46.81;101432.03;5054593;28;1476;-43
2022/11/30 07:03:05;;;;;;;;;;;;;;;17.60;45.22;101442.16;5048019;28;1251;-43
2022/11/30 07:05:33;;;;;;;;;;;;;;;16.65;46.95;101432.47;5051416;28;1238;-46
2022/11/30 07:07:59;;;;;;;;;;;;;;;17.45;45.82;101440.94;5034494;28;1214;-45
2022/11/30 07:10:24;;;;;;;;;;;;;;;17.17;46.19;101446.75;5055558;28;1073;-47
2022/11/30 07:12:50;;;;;;;;;;;;;;;16.56;46.66;101434.00;5053810;28;954;-49
2022/11/30 07:15:15;;;;;;;;;;;;;;;17.97;44.62;101435.78;5054188;28;1967;-40
2022/11/30 07:17:41;;;;;;;;;;;;;;;16.80;46.90;101450.19;5045908;28;1910;-45
2022/11/30 07:20:07;;;;;;;;;;;;;;;16.46;46.72;101451.19;5053931;28;1108;-48
2022/11/30 07:22:32;;;;;;;;;;;;;;;17.44;45.93;101443.94;5045982;28;1081;-46
2022/11/30 07:27:42;;;;;;;;;;;;;;;16.24;47.21;101442.97;5054805;28;1077;-47
2022/11/30 07:30:07;;;;;;;;;;;;;;;17.25;46.42;101440.75;5054059;28;1136;-49
2022/11/30 07:32:33;;;;;;;;;;;;;;;16.53;47.07;101448.25;5056163;28;1163;-47
2022/11/30 07:34:58;;;;;;;;;;;;;;;17.14;46.63;101455.50;5055230;28;1168;-43
2022/11/30 07:37:24;;;;;;;;;;;;;;;16.96;46.92;101449.31;5054904;28;1109;-47
2022/11/30 07:39:49;;;;;;;;;;;;;;;18.20;44.53;101439.19;5050529;28;1969;-49
2022/11/30 07:42:16;;;;;;;;;;;;;;;18.93;42.62;101443.88;5046813;28;1251;-48
2022/11/30 07:44:42;;;;;;;;;;;;;;;17.33;46.14;101437.53;5055337;28;2062;-47
2022/11/30 07:47:07;;;;;;;;;;;;;;;16.74;46.74;101439.16;5054934;28;1156;-48
2022/11/30 07:49:32;;;;;;;;;;;;;;;17.89;45.00;101442.63;5055776;28;1100;-51
2022/11/30 07:51:58;;;;;;;;;;;;;;;16.86;46.91;101435.44;5055581;28;1206;-50
2022/11/30 07:54:23;;;;;;;;;;;;;;;18.36;44.17;101440.94;5055740;28;1152;-49
2022/11/30 07:56:49;;;;;;;;;;;;;;;17.72;45.20;101453.75;5056264;28;1084;-44
2022/11/30 07:59:14;;;;;;;;;;;;;;;16.97;46.42;101430.88;5055348;28;1922;-47
2022/11/30 08:01:40;;;;;;;;;;;;;;;16.63;46.20;101444.81;5054282;28;1184;-46
2022/11/30 08:04:05;;;;;;;;;;;;;;;17.47;45.87;101453.59;5036093;28;1570;-48
2022/11/30 08:06:30;;;;;;;;;;;;;;;16.79;46.75;101456.78;5055619;28;1317;-49
2022/11/30 08:08:57;;;;;;;;;;;;;;;18.31;44.44;101446.41;5055200;28;1112;-46
2022/11/30 08:11:23;;;;;;;;;;;;;;;17.89;44.98;101450.03;5053806;28;1225;-47
2022/11/30 08:13:49;;;;;;;;;;;;;;;16.98;46.42;101447.13;5053586;28;1904;-45
2022/11/30 08:16:15;;;;;;;;;;;;;;;16.75;46.33;101438.06;5057262;28;1753;-48
2022/11/30 08:18:41;;;;;;;;;;;;;;;17.41;46.18;101450.78;5049367;28;1906;-45
2022/11/30 08:21:06;;;;;;;;;;;;;;;17.10;46.66;101439.53;5058039;28;1270;-46
2022/11/30 08:23:33;;;;;;;;;;;;;;;16.69;46.99;101450.09;5058918;28;1140;-45
2022/11/30 08:26:02;;;;;;;;;;;;;;;18.07;45.22;101438.59;5041284;28;1089;-47
2022/11/30 08:28:29;;;;;;;;;;;;;;;17.08;46.98;101447.22;5058681;28;1199;-45
2022/11/30 08:30:57;;;;;;;;;;;;;;;17.89;45.84;101422.50;5050614;28;1342;-44
2022/11/30 08:33:23;;;;;;;;;;;;;;;17.69;45.71;101432.28;5045317;28;934;-48
2022/11/30 08:35:48;;;;;;;;;;;;;;;16.98;46.85;101425.13;5055146;28;1120;-47
2022/11/30 08:38:14;;;;;;;;;;;;;;;16.79;46.59;101418.31;5054474;28;1969;-48
2022/11/30 08:40:39;;;;;;;;;;;;;;;17.72;45.93;101412.50;5058943;28;1183;-48
2022/11/30 08:43:05;;;;;;;;;;;;;;;16.84;46.97;101413.69;5061303;28;1528;-45
2022/11/30 08:45:30;;;;;;;;;;;;;;;16.69;47.21;101408.06;5058190;28;2075;-47
2022/11/30 08:47:56;;;;;;;;;;;;;;;17.51;46.18;101394.22;5058460;28;1092;-48
2022/11/30 08:50:21;;;;;;;;;;;;;;;16.74;47.38;101392.47;5058726;28;1100;-47
2022/11/30 08:52:47;;;;;;;;;;;;;;;17.90;45.81;101394.72;5061965;28;1260;-44
2022/11/30 08:55:12;;;;;;;;;;;;;;;17.17;46.96;101403.59;5067993;28;1079;-44
2022/11/30 08:57:38;;;;;;;;;;;;;;;17.97;45.20;101394.53;5065266;28;1256;-47
2022/11/30 09:00:03;;;;;;;;;;;;;;;18.58;43.67;101415.09;5065634;28;1906;-46
2022/11/30 09:02:29;;;;;;;;;;;;;;;17.32;46.21;101400.16;5058364;28;1167;-48
2022/11/30 09:04:54;;;;;;;;;;;;;;;16.94;46.60;101396.53;5058178;28;1208;-43
2022/11/30 09:07:20;;;;;;;;;;;;;;;17.71;45.64;101399.88;5057154;28;1140;-47
2022/11/30 09:09:45;;;;;;;;;;;;;;;16.89;46.80;101397.31;5058435;28;1100;-47
2022/11/30 09:12:10;;;;;;;;;;;;;;;18.81;43.58;101400.81;5057330;28;1230;-45
2022/11/30 09:14:36;;;;;;;;;;;;;;;17.75;45.34;101381.75;5050312;28;1841;-45
2022/11/30 09:17:01;;;;;;;;;;;;;;;17.03;46.68;101377.66;5052477;28;1331;-45
2022/11/30 09:19:27;;;;;;;;;;;;;;;17.65;46.09;101378.91;5042521;28;1972;-44
2022/11/30 09:21:52;;;;;;;;;;;;;;;17.49;45.92;101394.50;5050858;28;1262;-45
2022/11/30 09:24:18;;;;;;;;;;;;;;;16.98;46.71;101392.16;5057421;28;984;-46
2022/11/30 09:26:43;;;;;;;;;;;;;;;18.03;45.07;101390.69;5051979;28;1108;-47
2022/11/30 09:29:09;;;;;;;;;;;;;;;17.01;46.83;101380.69;5056827;28;1151;-48
2022/11/30 09:31:34;;;;;;;;;;;;;;;16.68;46.78;101399.00;5056601;28;1167;-49
2022/11/30 09:34:00;;;;;;;;;;;;;;;17.97;45.01;101375.25;5057018;28;1260;-49
2022/11/30 09:36:26;;;;;;;;;;;;;;;16.88;47.04;101381.06;5056809;28;916;-44
2022/11/30 09:38:51;;;;;;;;;;;;;;;16.79;46.75;101396.34;5057312;28;1984;-48
2022/11/30 09:41:29;;;;;;;;;;;;;;;17.70;45.75;101378.94;5057816;28;1124;-48
2022/11/30 09:43:59;;;;;;;;;;;;;;;16.86;46.81;101391.50;5055995;28;1753;-44
2022/11/30 09:46:26;;;;;;;;;;;;;;;17.89;45.39;101378.50;5039518;28;1143;-48
2022/11/30 09:48:53;;;;;;;;;;;;;;;17.16;46.48;101379.13;5057339;28;860;-48
2022/11/30 09:51:35;;;;;;;;;;;;;;;17.74;45.71;101377.31;5040016;28;1206;-48
2022/11/30 09:54:06;;;;;;;;;;;;;;;18.03;44.75;101379.69;5040119;28;1085;-45
2022/11/30 09:56:32;;;;;;;;;;;;;;;17.17;46.37;101372.56;5040402;28;1129;-47
2022/11/30 09:59:01;;;;;;;;;;;;;;;16.85;46.68;101382.41;5024665;28;1984;-45
2022/11/30 10:01:27;;;;;;;;;;;;;;;17.53;45.76;101370.88;5020338;28;1002;-48
2022/11/30 10:03:52;;;;;;;;;;;;;;;16.81;47.23;101374.97;5036764;28;1297;-43
2022/11/30 10:06:30;;;;;;;;;;;;;;;18.83;43.04;101375.78;5037074;28;1333;-45
2022/11/30 10:08:59;;;;;;;;;;;;;;;17.45;45.62;101354.88;5024936;28;1373;-46
2022/11/30 10:11:36;;;;;;;;;;;;;;;16.95;46.21;101364.41;5055911;28;1124;-42
2022/11/30 10:14:02;;;;;;;;;;;;;;;17.69;45.42;101358.03;5053126;28;1808;-45
2022/11/30 10:16:44;;;;;;;;;;;;;;;17.61;46.06;101358.53;5051231;28;1390;-48
2022/11/30 10:19:12;;;;;;;;;;;;;;;19.38;41.83;101366.97;5024528;28;1993;-49
2022/11/30 10:21:50;;;;;;;;;;;;;;;17.98;44.55;101360.41;5044508;28;1174;-50
2022/11/30 10:24:22;;;;;;;;;;;;;;;17.25;45.88;101347.31;5034625;28;1247;-44
2022/11/30 10:26:54;;;;;;;;;;;;;;;16.87;45.90;101362.91;5049623;28;1223;-49
2022/11/30 10:29:23;;;;;;;;;;;;;;;16.72;45.63;101352.66;5045253;28;1218;-48
2022/11/30 10:31:49;;;;;;;;;;;;;;;17.71;45.47;101368.75;5031959;28;1235;-48
2022/11/30 10:34:22;;;;;;;;;;;;;;;16.97;46.54;101363.06;5034015;28;1291;-49
2022/11/30 10:36:57;;;;;;;;;;;;;;;17.24;46.46;101356.66;5053624;28;1176;-47
2022/11/30 10:39:30;;;;;;;;;;;;;;;17.39;46.04;101356.78;5028966;28;1917;-44
2022/11/30 10:41:59;;;;;;;;;;;;;;;16.88;47.06;101348.94;5051336;28;1234;-47
2022/11/30 10:44:28;;;;;;;;;;;;;;;18.43;43.79;101347.88;5056194;28;1928;-47
2022/11/30 10:46:58;;;;;;;;;;;;;;;17.23;46.22;101341.25;5056473;28;1181;-46
2022/11/30 10:49:23;;;;;;;;;;;;;;;17.05;46.60;101354.31;5054971;28;1135;-45
2022/11/30 10:51:50;;;;;;;;;;;;;;;17.98;44.87;101338.41;5056316;28;1274;-48
2022/11/30 10:54:17;;;;;;;;;;;;;;;17.08;46.29;101339.22;5056341;28;1329;-48
2022/11/30 10:56:43;;;;;;;;;;;;;;;18.93;42.88;101341.91;5055862;28;1324;-48
2022/11/30 10:59:14;;;;;;;;;;;;;;;17.74;45.29;101336.06;5052898;28;1902;-49
2022/11/30 11:01:40;;;;;;;;;;;;;;;17.18;45.90;101335.72;5047699;28;1471;-46
2022/11/30 11:04:05;;;;;;;;;;;;;;;16.98;46.36;101341.91;5036513;28;1329;-50
2022/11/30 11:06:31;;;;;;;;;;;;;;;17.61;45.49;101345.63;5053731;28;1388;-48
2022/11/30 11:08:56;;;;;;;;;;;;;;;17.03;46.11;101322.72;5025157;28;1280;-45
2022/11/30 11:11:48;;;;;;;;;;;;;;;16.71;46.41;101343.56;5055662;28;1359;-47
2022/11/30 11:14:20;;;;;;;;;;;;;;;17.50;45.79;101327.44;5036234;28;1908;-45
2022/11/30 11:16:49;;;;;;;;;;;;;;;17.99;45.09;101330.97;5042888;28;1066;-42
2022/11/30 11:19:35;;;;;;;;;;;;;;;19.37;41.63;101313.72;5046275;28;1906;-46
2022/11/30 11:22:02;;;;;;;;;;;;;;;17.60;45.21;101302.72;5035648;28;1567;-47
2022/11/30 11:24:27;;;;;;;;;;;;;;;17.28;45.50;101311.88;5035290;28;1282;-46
2022/11/30 11:26:53;;;;;;;;;;;;;;;17.65;45.69;101321.16;5055277;28;1175;-46
2022/11/30 11:29:30;;;;;;;;;;;;;;;17.47;45.59;101316.94;5055261;28;1293;-47
2022/11/30 11:32:04;;;;;;;;;;;;;;;17.30;46.25;101321.78;5037354;28;1269;-48
2022/11/30 11:34:33;;;;;;;;;;;;;;;18.38;43.67;101319.50;5048904;28;1193;-45
2022/11/30 11:37:18;;;;;;;;;;;;;;;17.31;45.87;101329.78;5052550;28;1364;-46
2022/11/30 11:39:53;;;;;;;;;;;;;;;17.03;45.90;101352.94;5054981;28;1914;-48
2022/11/30 11:42:19;;;;;;;;;;;;;;;17.78;45.00;101353.69;5053353;28;1447;-47
2022/11/30 11:44:44;;;;;;;;;;;;;;;17.10;46.04;101387.31;5052839;28;1907;-45
2022/11/30 11:47:19;;;;;;;;;;;;;;;18.86;42.73;101396.41;5031512;28;1311;-45
2022/11/30 11:49:46;;;;;;;;;;;;;;;17.64;45.23;101413.00;5031024;28;1172;-46
2022/11/30 11:52:12;;;;;;;;;;;;;;;17.08;45.73;101411.50;5037327;28;1243;-44
2022/11/30 11:54:38;;;;;;;;;;;;;;;17.81;45.12;101412.84;5058161;28;962;-47
2022/11/30 11:57:06;;;;;;;;;;;;;;;17.10;46.08;101412.06;5042517;28;985;-44
2022/11/30 11:59:31;;;;;;;;;;;;;;;17.79;45.36;101426.88;5041679;28;1981;-41
2022/11/30 12:01:57;;;;;;;;;;;;;;;17.36;45.93;101409.53;5055560;28;839;-42
2022/11/30 12:04:34;;;;;;;;;;;;;;;17.91;45.13;101398.34;5056891;28;1069;-44
2022/11/30 12:07:00;;;;;;;;;;;;;;;18.52;43.21;101396.91;5056759;28;1200;-46
2022/11/30 12:09:36;;;;;;;;;;;;;;;17.38;45.76;101396.34;5031351;28;1178;-49
2022/11/30 12:12:01;;;;;;;;;;;;;;;16.99;46.06;101380.09;5050116;28;1338;-41
2022/11/30 12:14:27;;;;;;;;;;;;;;;16.77;45.88;101402.94;5058924;28;1915;-45
2022/11/30 12:16:53;;;;;;;;;;;;;;;18.10;44.61;101402.31;5059408;28;1139;-45
2022/11/30 12:19:18;;;;;;;;;;;;;;;17.15;46.07;101396.72;5054051;28;1905;-46
2022/11/30 12:21:59;;;;;;;;;;;;;;;18.11;44.75;101392.09;5047699;28;1247;-43
2022/11/30 12:24:36;;;;;;;;;;;;;;;18.06;44.54;101406.69;5051681;28;1136;-47
2022/11/30 12:27:15;;;;;;;;;;;;;;;17.26;45.90;101415.78;5055769;28;1195;-47
2022/11/30 12:29:59;;;;;;;;;;;;;;;17.33;46.24;101425.72;5030253;28;1176;-44
2022/11/30 12:32:39;;;;;;;;;;;;;;;17.40;45.88;101416.16;5053290;28;1168;-49
2022/11/30 12:35:11;;;;;;;;;;;;;;;18.10;44.72;101435.31;5028349;28;1126;-42
2022/11/30 12:37:39;;;;;;;;;;;;;;;18.48;43.66;101429.66;5055017;28;1175;-47
2022/11/30 12:40:14;;;;;;;;;;;;;;;17.33;45.94;101443.03;5044183;28;1909;-48
2022/11/30 12:42:45;;;;;;;;;;;;;;;17.05;45.83;101442.22;5048649;28;1105;-47
2022/11/30 12:45:25;;;;;;;;;;;;;;;17.92;45.21;101444.00;5040880;28;2253;-44
2022/11/30 12:47:56;;;;;;;;;;;;;;;17.26;46.09;101447.91;5034264;28;1162;-45
2022/11/30 12:50:21;;;;;;;;;;;;;;;16.85;46.08;101458.50;5054849;28;1112;-47